Terminal Aerodrome Forecast
Issued by NWS Detroit/Pontiac, MI

Home | Current Version | Previous Version | Text Only | Print | Product List | Glossary On
Versions: 1 2 3 4 5 6 7 8 9 10 11 12 13 14 15 16 17 18 19 20 21 22 23 24 25
000
FTUS43 KDTX 252000 AAA
TAFDTW
TAF AMD
KDTW 252043Z 2521/2624 22010KT P6SM SCT050 BKN200
     FM260300 20004KT P6SM OVC120
     FM260700 21005KT P6SM BKN080 OVC150
     FM261000 21007KT 5SM -SHRA BR BKN040 OVC080
     FM261400 22012G20KT P6SM OVC040=

USA.gov is the U.S. government's official web portal to all federal, state and local government web resources and services.